createdAt,value
2018-09-17T00:02:02.331Z,59.03
2018-09-17T00:04:29.888Z,59.50
2018-09-17T00:06:57.461Z,59.15
2018-09-17T00:09:25.034Z,59.45
2018-09-17T00:11:53.420Z,59.80
2018-09-17T00:14:22.722Z,59.54
2018-09-17T00:16:50.879Z,59.29
2018-09-17T00:19:18.925Z,59.00
2018-09-17T00:21:46.510Z,59.71
2018-09-17T00:24:15.160Z,59.37
2018-09-17T00:26:42.850Z,59.62
2018-09-17T00:29:13.144Z,59.15
2018-09-17T00:31:41.809Z,59.71
2018-09-17T00:34:10.152Z,59.10
2018-09-17T00:36:38.268Z,59.31
2018-09-17T00:39:06.831Z,59.33
2018-09-17T00:41:34.392Z,59.70
2018-09-17T00:44:02.342Z,59.59
2018-09-17T00:46:31.571Z,59.50
2018-09-17T00:48:59.228Z,59.64
2018-09-17T00:51:26.858Z,59.69
2018-09-17T00:53:54.719Z,60.46
2018-09-17T00:56:25.251Z,60.83
2018-09-17T00:58:54.229Z,60.33
2018-09-17T01:01:22.858Z,60.54
2018-09-17T01:03:51.114Z,61.20
2018-09-17T01:06:20.396Z,61.52
2018-09-17T01:08:48.573Z,61.13
2018-09-17T01:11:16.146Z,61.17
2018-09-17T01:13:43.895Z,61.76
2018-09-17T01:16:11.494Z,61.74
2018-09-17T01:18:39.400Z,61.58
2018-09-17T01:21:07.945Z,61.13
2018-09-17T01:26:16.455Z,61.65
2018-09-17T01:28:44.233Z,61.00
2018-09-17T01:31:12.749Z,61.21
2018-09-17T01:33:40.637Z,60.67
2018-09-17T01:36:10.644Z,61.42
2018-09-17T01:38:38.199Z,61.23
2018-09-17T01:41:05.818Z,60.74
2018-09-17T01:43:33.420Z,61.14
2018-09-17T01:46:02.187Z,61.74
2018-09-17T01:48:29.785Z,61.82
2018-09-17T01:50:57.361Z,61.82
2018-09-17T01:53:25.398Z,61.04
2018-09-17T01:55:54.055Z,61.93
2018-09-17T01:58:21.801Z,61.11
2018-09-17T02:00:51.376Z,61.48
2018-09-17T02:03:22.061Z,61.95
2018-09-17T02:05:49.754Z,61.19
2018-09-17T02:08:17.313Z,61.56
2018-09-17T02:10:45.917Z,61.81
2018-09-17T02:13:15.941Z,61.73
2018-09-17T02:15:43.762Z,61.51
2018-09-17T02:18:11.359Z,62.12
2018-09-17T02:20:39.643Z,61.68
2018-09-17T02:23:07.246Z,61.77
2018-09-17T02:25:34.827Z,62.39
2018-09-17T02:28:02.908Z,61.87
2018-09-17T02:30:30.538Z,62.32
2018-09-17T02:32:58.495Z,62.50
2018-09-17T02:35:28.016Z,62.56
2018-09-17T02:37:56.279Z,62.70
2018-09-17T02:40:24.206Z,62.73
2018-09-17T02:42:52.232Z,62.71
2018-09-17T02:45:21.701Z,62.76
2018-09-17T02:47:49.304Z,62.49
2018-09-17T02:50:16.912Z,62.17
2018-09-17T02:52:44.579Z,62.41
2018-09-17T02:55:12.984Z,62.40
2018-09-17T02:57:41.188Z,62.47
2018-09-17T03:00:09.832Z,62.48
2018-09-17T03:02:37.800Z,62.22
2018-09-17T03:05:05.404Z,62.77
2018-09-17T03:07:33.713Z,63.04
2018-09-17T03:10:01.357Z,62.49
2018-09-17T03:12:29.311Z,62.83
2018-09-17T03:14:56.900Z,62.82
2018-09-17T03:17:24.517Z,62.65
2018-09-17T03:19:52.103Z,63.00
2018-09-17T03:22:20.379Z,62.95
2018-09-17T03:24:48.030Z,62.64
2018-09-17T03:27:15.615Z,63.10
2018-09-17T03:29:44.922Z,62.83
2018-09-17T03:32:12.596Z,62.90
2018-09-17T03:34:40.270Z,62.65
2018-09-17T03:37:08.192Z,63.48
2018-09-17T03:39:35.798Z,63.22
2018-09-17T03:42:04.047Z,63.13
2018-09-17T03:44:32.338Z,63.29
2018-09-17T03:46:59.938Z,63.40
2018-09-17T03:49:27.549Z,62.92
2018-09-17T03:51:55.583Z,63.03
2018-09-17T03:54:23.206Z,62.71
2018-09-17T03:56:50.799Z,62.75
2018-09-17T03:59:18.894Z,63.26
2018-09-17T04:01:46.460Z,62.94
2018-09-17T04:04:14.102Z,63.41
2018-09-17T04:06:41.686Z,63.22
2018-09-17T04:09:12.386Z,63.51
2018-09-17T04:11:40.834Z,63.79
2018-09-17T04:14:08.409Z,63.40
2018-09-17T04:16:36.851Z,63.96
2018-09-17T04:19:04.409Z,63.71
2018-09-17T04:21:32.042Z,63.27
2018-09-17T04:24:00.873Z,63.74
2018-09-17T04:26:28.447Z,63.99
2018-09-17T04:28:56.006Z,63.62
2018-09-17T04:31:23.998Z,63.96
2018-09-17T04:33:51.591Z,63.51
2018-09-17T04:36:19.134Z,64.12
2018-09-17T04:38:47.059Z,63.77
2018-09-17T04:41:14.605Z,63.56
2018-09-17T04:43:42.148Z,63.92
2018-09-17T04:46:10.163Z,63.61
2018-09-17T04:48:37.773Z,64.12
2018-09-17T04:51:05.323Z,64.17
2018-09-17T04:53:33.248Z,63.49
2018-09-17T04:56:00.784Z,64.02
2018-09-17T04:58:28.411Z,63.45
2018-09-17T05:00:58.041Z,63.48
2018-09-17T05:03:25.664Z,63.59
2018-09-17T05:05:53.199Z,63.59
2018-09-17T05:08:21.167Z,64.01
2018-09-17T05:10:51.559Z,64.14
2018-09-17T05:13:19.196Z,64.77
2018-09-17T05:15:47.295Z,64.50
2018-09-17T05:18:14.879Z,64.59
2018-09-17T05:20:42.494Z,64.30
2018-09-17T05:23:10.539Z,64.32
2018-09-17T05:25:38.130Z,64.76
2018-09-17T05:28:05.686Z,63.79
2018-09-17T05:30:33.622Z,63.94
2018-09-17T05:33:01.240Z,64.22
2018-09-17T05:35:28.907Z,63.77
2018-09-17T05:37:56.904Z,63.68
2018-09-17T05:40:24.507Z,63.72
2018-09-17T05:42:52.068Z,63.13
2018-09-17T05:45:20.387Z,63.77
2018-09-17T05:47:47.976Z,63.06
2018-09-17T05:50:15.556Z,62.82
2018-09-17T05:52:43.582Z,63.00
2018-09-17T05:55:12.020Z,62.67
2018-09-17T05:57:39.641Z,62.55
2018-09-17T06:00:09.307Z,62.76
2018-09-17T06:02:36.863Z,62.68
2018-09-17T06:05:04.489Z,62.58
2018-09-17T06:07:32.439Z,61.92
2018-09-17T06:10:00.047Z,62.19
2018-09-17T06:12:27.598Z,62.01
2018-09-17T06:14:55.481Z,62.46
2018-09-17T06:17:23.091Z,62.36
2018-09-17T06:19:50.667Z,61.69
2018-09-17T06:22:19.571Z,61.24
2018-09-17T06:24:47.122Z,61.33
2018-09-17T06:27:15.421Z,61.38
2018-09-17T06:29:43.400Z,60.99
2018-09-17T06:32:10.999Z,61.74
2018-09-17T06:34:38.568Z,61.21
2018-09-17T06:37:06.528Z,60.87
2018-09-17T06:39:34.102Z,61.07
2018-09-17T06:42:02.246Z,60.83
2018-09-17T06:44:30.149Z,60.14
2018-09-17T06:46:57.809Z,60.21
2018-09-17T06:49:25.555Z,60.52
2018-09-17T06:51:53.568Z,59.63
2018-09-17T06:54:21.126Z,60.15
2018-09-17T06:56:48.687Z,59.98
2018-09-17T06:59:16.687Z,59.10
2018-09-17T07:01:44.271Z,59.03
2018-09-17T07:04:11.815Z,59.45
2018-09-17T07:06:40.569Z,59.10
2018-09-17T07:09:08.811Z,59.51
2018-09-17T07:11:37.271Z,59.43
2018-09-17T07:14:05.201Z,59.23
2018-09-17T07:16:32.835Z,58.87
2018-09-17T07:19:00.470Z,58.79
2018-09-17T07:21:28.425Z,58.64
2018-09-17T07:23:57.628Z,58.13
2018-09-17T07:26:27.907Z,58.46
2018-09-17T07:28:56.431Z,58.00
2018-09-17T07:31:24.946Z,58.11
2018-09-17T07:33:52.594Z,57.06
2018-09-17T07:36:21.016Z,57.76
2018-09-17T07:38:48.851Z,57.26
2018-09-17T07:41:16.461Z,57.18
2018-09-17T07:43:44.556Z,56.45
2018-09-17T07:46:12.147Z,56.62
2018-09-17T07:51:20.135Z,55.62
2018-09-17T07:53:47.701Z,56.19
2018-09-17T07:56:15.261Z,55.00
2018-09-17T07:58:43.195Z,55.42
2018-09-17T08:01:11.007Z,55.40
2018-09-17T08:03:38.615Z,54.53
2018-09-17T08:06:08.619Z,53.99
2018-09-17T08:08:36.300Z,53.66
2018-09-17T08:11:03.946Z,53.64
2018-09-17T08:13:31.977Z,53.53
2018-09-17T08:15:59.619Z,53.12
2018-09-17T08:18:28.991Z,52.71
2018-09-17T08:20:58.659Z,52.58
2018-09-17T08:23:27.499Z,52.98
2018-09-17T08:25:55.513Z,51.98
2018-09-17T08:28:24.130Z,51.71
2018-09-17T08:30:51.781Z,52.17
2018-09-17T08:33:19.604Z,51.60
2018-09-17T08:35:52.136Z,51.58
2018-09-17T08:38:20.172Z,50.84
2018-09-17T08:40:48.356Z,50.79
2018-09-17T08:43:16.400Z,50.03
2018-09-17T08:45:44.076Z,50.26
2018-09-17T08:48:11.683Z,49.19
2018-09-17T08:50:42.294Z,48.78
2018-09-17T08:53:10.963Z,48.49
2018-09-17T08:55:47.196Z,48.19
2018-09-17T08:58:20.391Z,47.71
2018-09-17T09:00:53.191Z,48.06
2018-09-17T09:03:27.334Z,48.04
2018-09-17T09:08:01.393Z,47.25
2018-09-17T09:10:36.392Z,47.55
2018-09-17T09:13:16.266Z,46.97
2018-09-17T09:15:45.756Z,46.77
2018-09-17T09:18:14.906Z,46.49
2018-09-17T09:20:44.411Z,46.01
2018-09-17T09:23:14.483Z,45.97
2018-09-17T09:25:43.678Z,46.17
2018-09-17T09:28:11.642Z,45.51
2018-09-17T09:30:39.338Z,45.62
2018-09-17T09:33:06.972Z,45.34
2018-09-17T09:35:34.808Z,45.40
2018-09-17T09:38:03.009Z,45.05
2018-09-17T09:40:31.245Z,45.33
2018-09-17T09:42:59.946Z,44.25
2018-09-17T09:45:27.519Z,43.53
2018-09-17T09:47:59.556Z,42.97
2018-09-17T09:50:29.280Z,40.84
2018-09-17T09:52:58.304Z,39.75
2018-09-17T09:55:26.611Z,38.84
2018-09-17T09:57:56.788Z,38.32
2018-09-17T10:00:30.640Z,38.14
2018-09-17T10:03:06.194Z,37.01
2018-09-17T10:05:33.841Z,36.54
2018-09-17T10:08:02.555Z,36.31
2018-09-17T10:10:35.482Z,35.47
2018-09-17T10:13:08.104Z,36.16
2018-09-17T10:15:41.526Z,36.05
2018-09-17T10:18:14.394Z,35.89
2018-09-17T10:20:42.666Z,35.69
2018-09-17T10:23:10.540Z,35.58
2018-09-17T10:25:38.209Z,35.23
2018-09-17T10:28:06.795Z,34.91
2018-09-17T10:30:34.801Z,34.67
2018-09-17T10:33:03.167Z,34.39
2018-09-17T10:35:31.631Z,34.77
2018-09-17T10:38:00.546Z,34.17
2018-09-17T10:40:30.138Z,33.05
2018-09-17T10:42:57.783Z,32.01
2018-09-17T10:45:26.245Z,31.56
2018-09-17T10:47:53.794Z,31.82
2018-09-17T10:50:22.438Z,31.97
2018-09-17T10:52:50.679Z,31.98
2018-09-17T10:55:19.245Z,32.18
2018-09-17T10:57:46.884Z,31.28
2018-09-17T11:00:15.711Z,32.28
2018-09-17T11:02:44.211Z,31.67
2018-09-17T11:05:14.190Z,32.29
2018-09-17T11:07:43.635Z,31.62
2018-09-17T11:10:12.455Z,31.82
2018-09-17T11:12:41.971Z,30.60
2018-09-17T11:15:10.039Z,30.06
2018-09-17T11:17:37.653Z,30.55
2018-09-17T11:20:07.476Z,30.09
2018-09-17T11:22:37.559Z,29.42
2018-09-17T11:25:06.106Z,28.67
2018-09-17T11:27:33.678Z,29.03
2018-09-17T11:30:02.478Z,28.37
2018-09-17T11:32:31.525Z,27.12
2018-09-17T11:35:02.669Z,27.83
2018-09-17T11:37:31.080Z,27.09
2018-09-17T11:39:58.659Z,27.41
2018-09-17T11:42:27.176Z,27.01
2018-09-17T11:44:55.037Z,26.77
2018-09-17T11:47:22.745Z,26.67
2018-09-17T11:49:50.626Z,25.90
2018-09-17T11:52:18.674Z,26.69
2018-09-17T11:54:48.930Z,26.12
2018-09-17T11:57:17.140Z,25.92
2018-09-17T11:59:46.514Z,26.47
2018-09-17T12:02:19.159Z,25.09
2018-09-17T12:04:52.742Z,25.40
2018-09-17T12:07:26.427Z,24.79
2018-09-17T12:09:55.566Z,25.06
2018-09-17T12:12:25.156Z,25.05
2018-09-17T12:14:53.318Z,23.87
2018-09-17T12:17:20.873Z,24.36
2018-09-17T12:19:48.558Z,24.11
2018-09-17T12:22:16.630Z,23.80
2018-09-17T12:24:45.286Z,24.60
2018-09-17T12:27:13.742Z,25.29
2018-09-17T12:29:42.711Z,24.95
2018-09-17T12:32:10.578Z,24.88
2018-09-17T12:34:38.178Z,24.06
2018-09-17T12:37:06.303Z,24.77
2018-09-17T12:39:33.915Z,24.15
2018-09-17T12:42:03.117Z,23.77
2018-09-17T12:44:35.724Z,24.00
2018-09-17T12:47:03.360Z,25.21
2018-09-17T12:49:30.960Z,24.64
2018-09-17T12:52:05.431Z,25.57
2018-09-17T12:54:33.989Z,25.45
2018-09-17T12:57:01.609Z,26.30
2018-09-17T12:59:30.285Z,26.32
2018-09-17T13:01:57.898Z,27.83
2018-09-17T13:04:25.708Z,28.39
2018-09-17T13:06:55.472Z,28.94
2018-09-17T13:09:23.860Z,28.87
2018-09-17T13:11:52.552Z,28.63
2018-09-17T13:14:20.450Z,28.68
2018-09-17T13:16:48.042Z,27.91
2018-09-17T13:19:16.266Z,28.77
2018-09-17T13:21:46.950Z,28.07
2018-09-17T13:24:15.184Z,27.75
2018-09-17T13:26:43.618Z,28.45
2018-09-17T13:29:12.600Z,27.64
2018-09-17T13:31:41.553Z,27.72
2018-09-17T13:34:09.146Z,28.17
2018-09-17T13:36:38.360Z,28.39
2018-09-17T13:39:05.966Z,27.24
2018-09-17T13:41:33.871Z,27.96
2018-09-17T13:44:01.951Z,27.48
2018-09-17T13:46:29.561Z,27.44
2018-09-17T13:48:57.098Z,27.51
2018-09-17T13:51:25.868Z,28.31
2018-09-17T13:53:54.740Z,27.48
2018-09-17T13:56:22.332Z,27.48
2018-09-17T13:58:51.511Z,27.67
2018-09-17T14:01:19.294Z,28.10
2018-09-17T14:03:48.266Z,28.16
2018-09-17T14:06:16.682Z,28.20
2018-09-17T14:08:44.292Z,28.11
2018-09-17T14:11:12.305Z,27.67
2018-09-17T14:13:39.872Z,27.15
2018-09-17T14:16:08.639Z,27.65
2018-09-17T14:18:37.140Z,27.89
2018-09-17T14:21:04.736Z,27.14
2018-09-17T14:23:37.016Z,27.08
2018-09-17T14:26:05.403Z,27.18
2018-09-17T14:28:33.846Z,27.43
2018-09-17T14:31:01.393Z,28.07
2018-09-17T14:33:34.430Z,27.62
2018-09-17T14:38:48.260Z,28.02
2018-09-17T14:41:19.902Z,27.42
2018-09-17T14:43:49.992Z,27.85
2018-09-17T14:49:28.094Z,26.70
2018-09-17T14:51:58.217Z,26.62
2018-09-17T14:54:25.897Z,26.63
2018-09-17T14:56:54.693Z,27.08
2018-09-17T14:59:25.828Z,27.25
2018-09-17T15:01:56.205Z,26.48
2018-09-17T15:04:24.503Z,27.23
2018-09-17T15:06:52.483Z,26.21
2018-09-17T15:09:20.009Z,27.13
2018-09-17T15:11:48.058Z,26.15
2018-09-17T15:14:15.702Z,26.81
2018-09-17T15:16:45.305Z,25.74
2018-09-17T15:19:13.283Z,25.90
2018-09-17T15:21:42.092Z,26.15
2018-09-17T15:24:10.369Z,25.53
2018-09-17T15:26:38.296Z,25.86
2018-09-17T15:29:07.514Z,25.72
2018-09-17T15:31:35.083Z,25.68
2018-09-17T15:34:03.866Z,26.03
2018-09-17T15:36:31.396Z,26.86
2018-09-17T15:38:59.803Z,26.75
2018-09-17T15:41:27.785Z,26.44
2018-09-17T15:43:55.231Z,26.17
2018-09-17T15:46:25.636Z,25.24
2018-09-17T15:48:53.639Z,25.18
2018-09-17T15:51:22.271Z,24.08
2018-09-17T15:53:49.808Z,25.02
2018-09-17T15:56:20.013Z,25.02
2018-09-17T15:58:47.554Z,25.64
2018-09-17T16:01:15.341Z,27.05
2018-09-17T16:03:44.878Z,27.74
2018-09-17T16:06:12.456Z,27.96
2018-09-17T16:08:41.425Z,27.75
2018-09-17T16:11:09.350Z,28.37
2018-09-17T16:13:37.681Z,28.21
2018-09-17T16:16:06.302Z,28.54
2018-09-17T16:18:33.897Z,29.42
2018-09-17T16:21:01.537Z,28.99
2018-09-17T16:23:29.464Z,29.20
2018-09-17T16:25:57.023Z,29.87
2018-09-17T16:28:24.557Z,29.73
2018-09-17T16:30:52.569Z,29.73
2018-09-17T16:33:20.412Z,30.61
2018-09-17T16:35:48.790Z,29.97
2018-09-17T16:38:16.754Z,30.67
2018-09-17T16:40:44.898Z,31.06
2018-09-17T16:43:12.459Z,31.07
2018-09-17T16:45:40.395Z,30.47
2018-09-17T16:48:08.662Z,31.45
2018-09-17T16:50:36.289Z,31.47
2018-09-17T16:53:04.365Z,31.72
2018-09-17T16:55:32.628Z,31.07
2018-09-17T16:58:00.271Z,31.46
2018-09-17T17:00:28.971Z,31.71
2018-09-17T17:02:56.537Z,32.08
2018-09-17T17:05:24.776Z,32.54
2018-09-17T17:07:52.730Z,32.59
2018-09-17T17:10:21.258Z,32.31
2018-09-17T17:12:48.845Z,33.16
2018-09-17T17:15:28.255Z,33.22
2018-09-17T17:17:56.537Z,33.01
2018-09-17T17:20:24.977Z,33.22
2018-09-17T17:22:52.494Z,33.27
2018-09-17T17:25:20.074Z,33.75
2018-09-17T17:27:47.983Z,33.94
2018-09-17T17:30:15.555Z,34.21
2018-09-17T17:32:43.158Z,35.02
2018-09-17T17:35:11.406Z,34.84
2018-09-17T17:37:39.914Z,34.68
2018-09-17T17:40:07.456Z,34.98
2018-09-17T17:42:36.051Z,34.99
2018-09-17T17:45:03.650Z,35.59
2018-09-17T17:47:32.614Z,35.94
2018-09-17T17:50:00.728Z,35.92
2018-09-17T17:52:28.260Z,36.33
2018-09-17T17:57:30.514Z,36.00
2018-09-17T17:59:58.233Z,36.62
2018-09-17T18:02:25.796Z,36.80
2018-09-17T18:04:54.837Z,37.12
2018-09-17T18:07:23.510Z,36.80
2018-09-17T18:09:51.107Z,36.76
2018-09-17T18:12:19.025Z,37.57
2018-09-17T18:14:46.641Z,36.90
2018-09-17T18:17:14.309Z,37.00
2018-09-17T18:19:42.048Z,37.61
2018-09-17T18:22:09.640Z,37.87
2018-09-17T18:24:37.786Z,37.97
2018-09-17T18:27:05.638Z,37.50
2018-09-17T18:29:33.204Z,37.75
2018-09-17T18:32:01.110Z,38.15
2018-09-17T18:34:28.658Z,38.83
2018-09-17T18:36:59.240Z,38.44
2018-09-17T18:39:28.159Z,38.87
2018-09-17T18:41:57.514Z,39.60
2018-09-17T18:44:28.706Z,38.87
2018-09-17T18:46:59.390Z,39.04
2018-09-17T18:49:26.965Z,39.37
2018-09-17T18:51:58.807Z,39.73
2018-09-17T18:54:29.086Z,39.19
2018-09-17T18:59:39.954Z,40.09
2018-09-17T19:02:07.631Z,40.28
2018-09-17T19:04:37.324Z,40.13
2018-09-17T19:07:05.941Z,40.08
2018-09-17T19:09:38.693Z,40.12
2018-09-17T19:12:08.017Z,40.61
2018-09-17T19:14:41.112Z,40.80
2018-09-17T19:17:14.575Z,40.63
2018-09-17T19:19:44.609Z,40.39
2018-09-17T19:22:18.783Z,40.77
2018-09-17T19:24:46.421Z,40.83
2018-09-17T19:27:16.366Z,40.97
2018-09-17T19:29:44.702Z,41.56
2018-09-17T19:32:12.574Z,40.96
2018-09-17T19:34:41.321Z,42.00
2018-09-17T19:37:17.590Z,41.56
2018-09-17T19:39:50.471Z,41.72
2018-09-17T19:42:19.607Z,41.76
2018-09-17T19:44:52.547Z,42.22
2018-09-17T19:47:23.788Z,42.33
2018-09-17T19:49:52.577Z,42.42
2018-09-17T19:52:24.830Z,42.60
2018-09-17T19:54:54.124Z,42.78
2018-09-17T19:57:26.724Z,42.39
2018-09-17T19:59:57.227Z,42.18
2018-09-17T20:02:26.517Z,42.04
2018-09-17T20:04:59.218Z,42.76
2018-09-17T20:07:27.343Z,42.70
2018-09-17T20:09:56.688Z,42.31
2018-09-17T20:12:24.358Z,42.74
2018-09-17T20:14:52.459Z,42.29
2018-09-17T20:17:21.731Z,42.61
2018-09-17T20:19:50.367Z,42.55
2018-09-17T20:22:18.431Z,42.86
2018-09-17T20:24:47.368Z,43.82
2018-09-17T20:27:17.124Z,43.21
2018-09-17T20:29:44.991Z,43.34
2018-09-17T20:32:12.589Z,43.71
2018-09-17T20:34:40.269Z,43.09
2018-09-17T20:37:08.222Z,43.06
2018-09-17T20:39:35.851Z,43.99
2018-09-17T20:42:05.316Z,43.72
2018-09-17T20:44:33.255Z,44.08
2018-09-17T20:47:00.816Z,43.57
2018-09-17T20:49:28.492Z,44.18
2018-09-17T20:51:56.472Z,43.91
2018-09-17T20:54:24.061Z,44.00
2018-09-17T20:56:52.118Z,44.33
2018-09-17T20:59:20.019Z,44.02
2018-09-17T21:01:48.942Z,44.44
2018-09-17T21:04:17.568Z,44.26
2018-09-17T21:06:45.571Z,44.61
2018-09-17T21:09:14.542Z,44.59
2018-09-17T21:11:43.348Z,44.47
2018-09-17T21:14:11.456Z,44.94
2018-09-17T21:16:40.026Z,45.03
2018-09-17T21:19:08.526Z,45.01
2018-09-17T21:21:42.265Z,44.61
2018-09-17T21:24:09.841Z,44.97
2018-09-17T21:26:39.088Z,45.09
2018-09-17T21:29:07.009Z,44.90
2018-09-17T21:31:34.728Z,45.20
2018-09-17T21:34:02.352Z,45.15
2018-09-17T21:36:30.338Z,45.00
2018-09-17T21:38:58.945Z,45.56
2018-09-17T21:41:26.547Z,45.11
2018-09-17T21:43:54.491Z,45.10
2018-09-17T21:46:22.923Z,45.03
2018-09-17T21:48:50.589Z,44.89
2018-09-17T21:51:19.264Z,44.97
2018-09-17T21:53:50.474Z,45.75
2018-09-17T21:56:18.083Z,45.65
2018-09-17T21:58:46.912Z,45.50
2018-09-17T22:01:18.537Z,45.87
2018-09-17T22:03:46.101Z,45.65
2018-09-17T22:06:14.575Z,45.02
2018-09-17T22:08:42.239Z,45.36
2018-09-17T22:11:09.846Z,45.47
2018-09-17T22:13:38.464Z,45.90
2018-09-17T22:16:06.810Z,45.34
2018-09-17T22:18:35.281Z,45.70
2018-09-17T22:21:03.386Z,45.88
2018-09-17T22:23:30.970Z,46.27
2018-09-17T22:25:58.620Z,45.73
2018-09-17T22:28:26.743Z,45.70
2018-09-17T22:30:54.458Z,46.42
2018-09-17T22:33:22.165Z,45.80
2018-09-17T22:35:50.179Z,45.88
2018-09-17T22:38:17.864Z,46.12
2018-09-17T22:40:46.554Z,46.47
2018-09-17T22:43:14.619Z,46.05
2018-09-17T22:45:42.240Z,46.57
2018-09-17T22:48:09.868Z,45.83
2018-09-17T22:50:38.143Z,46.50
2018-09-17T22:53:05.716Z,46.41
2018-09-17T22:55:33.606Z,46.19
2018-09-17T22:58:01.204Z,46.60
2018-09-17T23:00:28.850Z,46.38
2018-09-17T23:02:58.668Z,46.17
2018-09-17T23:05:26.320Z,47.07
2018-09-17T23:07:53.922Z,46.97
2018-09-17T23:10:21.966Z,46.65
2018-09-17T23:12:49.567Z,46.57
2018-09-17T23:15:17.239Z,46.95
2018-09-17T23:17:44.847Z,46.75
2018-09-17T23:20:12.919Z,46.88
2018-09-17T23:22:40.487Z,47.29
2018-09-17T23:25:08.099Z,47.17
2018-09-17T23:27:35.688Z,46.97
2018-09-17T23:30:03.326Z,47.08
2018-09-17T23:32:30.891Z,47.62
2018-09-17T23:34:58.491Z,47.68
2018-09-17T23:37:26.070Z,47.15
2018-09-17T23:39:53.990Z,47.99
2018-09-17T23:42:21.587Z,47.16
2018-09-17T23:44:49.331Z,47.34
2018-09-17T23:47:17.003Z,47.37
2018-09-17T23:49:44.676Z,47.83
2018-09-17T23:52:12.294Z,47.87
2018-09-17T23:54:40.236Z,47.78
2018-09-17T23:57:07.848Z,47.36
2018-09-17T23:59:35.539Z,47.45
